Terminal Aerodrome Forecast
Issued by NWS Jackson, MS

Home | Current Version | Previous Version | Text Only | Print | Product List | Glossary On
Versions: 1 2 3 4 5 6 7 8 9 10 11 12 13 14 15 16
000
FTUS44 KJAN 222338
TAFHBG
TAF
KHBG 222338Z 2300/2324 03003KT P6SM FEW007 BKN110
     FM230800 00000KT 4SM -TSRA BR BKN015CB
     FM231100 32003KT 6SM -DZ BR BKN003
     FM231400 31004KT P6SM BKN008
     FM231700 28005KT P6SM SHRA VCTS BKN025CB BKN250=

USA.gov is the U.S. government's official web portal to all federal, state and local government web resources and services.